createdAt,value
2018-01-13T00:02:29.094Z,17.33
2018-01-13T00:04:59.832Z,15.07
2018-01-13T00:07:30.627Z,16.07
2018-01-13T00:10:01.383Z,15.63
2018-01-13T00:12:32.155Z,16.63
2018-01-13T00:15:02.948Z,14.20
2018-01-13T00:17:33.888Z,14.97
2018-01-13T00:20:04.698Z,15.90
2018-01-13T00:22:37.524Z,16.20
2018-01-13T00:25:08.273Z,14.70
2018-01-13T00:27:39.074Z,14.87
2018-01-13T00:30:09.833Z,15.13
2018-01-13T00:32:40.596Z,14.80
2018-01-13T00:35:11.349Z,15.77
2018-01-13T00:37:42.129Z,15.97
2018-01-13T00:40:12.889Z,14.63
2018-01-13T00:42:43.659Z,15.67
2018-01-13T00:45:14.456Z,16.47
2018-01-13T00:47:45.252Z,18.03
2018-01-13T00:50:16.004Z,15.27
2018-01-13T00:52:46.783Z,17.00
2018-01-13T00:55:17.564Z,15.43
2018-01-13T00:57:48.360Z,15.50
2018-01-13T01:00:19.129Z,15.03
2018-01-13T01:02:50.144Z,16.30
2018-01-13T01:05:20.980Z,16.33
2018-01-13T01:07:51.797Z,16.03
2018-01-13T01:10:22.552Z,18.40
2018-01-13T01:12:53.329Z,15.73
2018-01-13T01:15:24.086Z,17.00
2018-01-13T01:17:54.855Z,15.00
2018-01-13T01:20:25.606Z,16.27
2018-01-13T01:22:56.382Z,16.50
2018-01-13T01:25:39.452Z,15.13
2018-01-13T01:28:10.237Z,17.45
2018-01-13T01:30:40.988Z,16.07
2018-01-13T01:33:11.781Z,16.83
2018-01-13T01:35:42.528Z,15.47
2018-01-13T01:38:13.296Z,14.57
2018-01-13T01:40:44.052Z,14.63
2018-01-13T01:43:14.957Z,14.43
2018-01-13T01:45:45.741Z,14.00
2018-01-13T01:48:25.616Z,14.17
2018-01-13T01:50:56.372Z,13.82
2018-01-13T01:53:27.167Z,14.53
2018-01-13T01:55:57.925Z,15.23
2018-01-13T01:58:28.704Z,15.50
2018-01-13T02:00:59.521Z,14.40
2018-01-13T02:03:30.296Z,14.50
2018-01-13T02:06:01.084Z,14.87
2018-01-13T02:08:32.057Z,14.40
2018-01-13T02:11:02.806Z,14.13
2018-01-13T02:13:33.587Z,16.00
2018-01-13T02:16:04.428Z,17.10
2018-01-13T02:18:35.225Z,14.60
2018-01-13T02:21:06.004Z,14.57
2018-01-13T02:23:36.765Z,15.07
2018-01-13T02:26:07.532Z,16.13
2018-01-13T02:28:38.320Z,15.37
2018-01-13T02:31:09.064Z,14.53
2018-01-13T02:33:39.844Z,14.80
2018-01-13T02:36:10.608Z,15.07
2018-01-13T02:38:41.368Z,16.53
2018-01-13T02:41:12.129Z,16.00
2018-01-13T02:43:42.888Z,17.20
2018-01-13T02:46:13.639Z,15.30
2018-01-13T02:48:44.430Z,16.80
2018-01-13T02:51:15.221Z,16.90
2018-01-13T02:53:45.989Z,17.60
2018-01-13T02:56:16.742Z,16.10
2018-01-13T02:58:47.528Z,17.37
2018-01-13T03:01:18.299Z,17.03
2018-01-13T03:03:49.053Z,17.30
2018-01-13T03:06:19.800Z,16.30
2018-01-13T03:08:50.784Z,18.10
2018-01-13T03:11:22.631Z,17.12
2018-01-13T03:13:53.413Z,17.10
2018-01-13T03:16:24.167Z,17.87
2018-01-13T03:18:55.156Z,19.00
2018-01-13T03:21:25.948Z,17.90
2018-01-13T03:23:56.734Z,18.60
2018-01-13T03:26:27.528Z,17.37
2018-01-13T03:28:58.292Z,15.70
2018-01-13T03:31:29.040Z,19.20
2018-01-13T03:33:59.832Z,17.03
2018-01-13T03:36:30.585Z,16.80
2018-01-13T03:39:01.341Z,16.63
2018-01-13T03:41:32.080Z,16.67
2018-01-13T03:44:03.224Z,18.17
2018-01-13T03:46:33.984Z,17.80
2018-01-13T03:49:04.780Z,19.57
2018-01-13T03:51:35.540Z,19.40
2018-01-13T03:54:06.300Z,17.07
2018-01-13T03:56:37.069Z,17.17
2018-01-13T03:59:07.832Z,19.47
2018-01-13T04:01:38.588Z,16.43
2018-01-13T04:04:09.384Z,20.43
2018-01-13T04:06:40.144Z,19.30
2018-01-13T04:09:11.164Z,18.17
2018-01-13T04:11:41.948Z,16.67
2018-01-13T04:14:12.717Z,17.70
2018-01-13T04:16:43.472Z,18.60
2018-01-13T04:19:14.490Z,18.17
2018-01-13T04:21:45.266Z,18.40
2018-01-13T04:24:16.057Z,17.83
2018-01-13T04:26:46.807Z,17.97
2018-01-13T04:29:17.639Z,19.60
2018-01-13T04:31:48.397Z,19.90
2018-01-13T04:34:19.187Z,19.33
2018-01-13T04:36:49.941Z,17.83
2018-01-13T04:39:20.742Z,22.23
2018-01-13T04:41:51.497Z,17.90
2018-01-13T04:44:22.280Z,20.30
2018-01-13T04:46:53.046Z,17.70
2018-01-13T04:49:23.821Z,19.83
2018-01-13T04:51:54.604Z,18.60
2018-01-13T04:54:25.355Z,17.90
2018-01-13T04:56:56.208Z,18.37
2018-01-13T04:59:26.979Z,18.60
2018-01-13T05:01:57.725Z,18.10
2018-01-13T05:04:28.740Z,16.90
2018-01-13T05:06:59.496Z,20.37
2018-01-13T05:09:30.269Z,19.57
2018-01-13T05:12:01.012Z,18.50
2018-01-13T05:14:31.779Z,20.70
2018-01-13T05:17:02.539Z,20.90
2018-01-13T05:19:33.559Z,19.40
2018-01-13T05:22:04.327Z,18.70
2018-01-13T05:24:35.087Z,19.13
2018-01-13T05:27:05.840Z,19.10
2018-01-13T05:29:36.670Z,18.10
2018-01-13T05:32:07.433Z,17.93
2018-01-13T05:34:38.198Z,18.27
2018-01-13T05:37:08.969Z,17.60
2018-01-13T05:39:39.728Z,17.13
2018-01-13T05:42:11.457Z,16.80
2018-01-13T05:44:42.224Z,17.60
2018-01-13T05:47:12.959Z,16.47
2018-01-13T05:49:43.788Z,17.80
2018-01-13T05:52:14.565Z,17.00
2018-01-13T05:54:45.332Z,17.90
2018-01-13T05:57:16.080Z,16.23
2018-01-13T05:59:46.852Z,15.83
2018-01-13T06:02:17.600Z,15.53
2018-01-13T06:04:48.352Z,16.20
2018-01-13T06:07:19.104Z,15.47
2018-01-13T06:09:49.911Z,16.90
2018-01-13T06:12:20.725Z,16.47
2018-01-13T06:14:51.543Z,17.00
2018-01-13T06:17:22.316Z,15.80
2018-01-13T06:19:53.090Z,14.70
2018-01-13T06:22:23.856Z,14.60
2018-01-13T06:24:54.624Z,15.70
2018-01-13T06:27:25.379Z,15.57
2018-01-13T06:29:56.146Z,15.10
2018-01-13T06:32:26.900Z,14.90
2018-01-13T06:34:57.688Z,14.00
2018-01-13T06:37:28.457Z,15.50
2018-01-13T06:39:59.283Z,15.30
2018-01-13T06:42:30.015Z,14.90
2018-01-13T06:45:00.780Z,13.87
2018-01-13T06:47:31.556Z,15.43
2018-01-13T06:50:02.501Z,15.10
2018-01-13T06:52:33.281Z,14.53
2018-01-13T06:55:04.080Z,13.13
2018-01-13T06:57:34.831Z,14.53
2018-01-13T07:00:05.633Z,15.90
2018-01-13T07:02:36.381Z,15.63
2018-01-13T07:05:07.151Z,14.10
2018-01-13T07:07:37.947Z,14.93
2018-01-13T07:10:08.712Z,14.40
2018-01-13T07:12:39.507Z,15.23
2018-01-13T07:15:10.276Z,14.90
2018-01-13T07:17:41.032Z,13.70
2018-01-13T07:20:11.837Z,15.47
2018-01-13T07:22:42.599Z,16.47
2018-01-13T07:25:13.389Z,15.97
2018-01-13T07:27:44.144Z,16.57
2018-01-13T07:30:15.114Z,15.20
2018-01-13T07:32:45.861Z,15.00
2018-01-13T07:35:16.657Z,15.83
2018-01-13T07:37:47.428Z,14.63
2018-01-13T07:40:18.206Z,15.77
2018-01-13T07:42:49.072Z,15.30
2018-01-13T07:45:19.914Z,15.70
2018-01-13T07:47:50.724Z,14.20
2018-01-13T07:50:21.508Z,13.87
2018-01-13T07:52:52.272Z,14.77
2018-01-13T07:55:23.206Z,14.63
2018-01-13T07:57:53.996Z,15.80
2018-01-13T08:00:24.888Z,14.00
2018-01-13T08:02:55.649Z,14.93
2018-01-13T08:05:26.411Z,15.40
2018-01-13T08:07:57.180Z,16.20
2018-01-13T08:10:27.954Z,14.40
2018-01-13T08:12:58.780Z,14.47
2018-01-13T08:15:29.553Z,15.00
2018-01-13T08:18:00.304Z,15.37
2018-01-13T08:20:31.236Z,15.50
2018-01-13T08:23:02.028Z,16.80
2018-01-13T08:25:32.856Z,16.60
2018-01-13T08:28:03.615Z,15.63
2018-01-13T08:30:34.657Z,15.83
2018-01-13T08:33:05.422Z,15.60
2018-01-13T08:35:36.212Z,16.10
2018-01-13T08:38:07.040Z,16.43
2018-01-13T08:40:37.930Z,15.23
2018-01-13T08:43:08.735Z,16.60
2018-01-13T08:45:39.507Z,15.47
2018-01-13T08:48:10.409Z,17.00
2018-01-13T08:50:41.232Z,16.00
2018-01-13T08:53:12.048Z,16.60
2018-01-13T08:55:42.820Z,15.63
2018-01-13T08:58:13.605Z,17.27
2018-01-13T09:00:44.459Z,15.90
2018-01-13T09:03:15.248Z,16.00
2018-01-13T09:05:46.072Z,16.80
2018-01-13T09:08:20.136Z,16.40
2018-01-13T09:10:50.920Z,15.15
2018-01-13T09:13:21.688Z,17.20
2018-01-13T09:15:53.489Z,15.37
2018-01-13T09:18:27.696Z,16.92
2018-01-13T09:20:58.568Z,16.70
2018-01-13T09:23:29.348Z,16.27
2018-01-13T09:26:00.226Z,15.90
2018-01-13T09:28:31.041Z,15.67
2018-01-13T09:31:01.819Z,17.57
2018-01-13T09:33:32.583Z,15.80
2018-01-13T09:36:03.452Z,14.53
2018-01-13T09:38:34.225Z,17.60
2018-01-13T09:41:05.039Z,17.73
2018-01-13T09:43:35.842Z,16.40
2018-01-13T09:46:06.635Z,17.70
2018-01-13T09:48:37.404Z,15.83
2018-01-13T09:51:08.367Z,17.90
2018-01-13T09:53:39.145Z,15.13
2018-01-13T09:56:09.965Z,15.43
2018-01-13T09:58:40.733Z,14.83
2018-01-13T10:01:11.768Z,15.60
2018-01-13T10:03:42.666Z,14.18
2018-01-13T10:06:13.504Z,14.77
2018-01-13T10:08:44.315Z,15.10
2018-01-13T10:11:15.217Z,15.87
2018-01-13T10:13:45.993Z,15.47
2018-01-13T10:16:16.764Z,14.60
2018-01-13T10:18:47.561Z,14.20
2018-01-13T10:21:18.417Z,15.70
2018-01-13T10:23:49.207Z,14.07
2018-01-13T10:26:19.992Z,14.33
2018-01-13T10:28:50.748Z,14.87
2018-01-13T10:31:21.557Z,15.37
2018-01-13T10:33:52.562Z,15.50
2018-01-13T10:36:23.830Z,14.85
2018-01-13T10:38:54.621Z,14.63
2018-01-13T10:41:25.400Z,14.57
2018-01-13T10:43:56.219Z,11.73
2018-01-13T10:46:27.025Z,13.07
2018-01-13T10:48:57.792Z,12.23
2018-01-13T10:51:28.641Z,13.33
2018-01-13T10:53:59.474Z,12.00
2018-01-13T10:56:30.316Z,11.50
2018-01-13T10:59:01.077Z,13.80
2018-01-13T11:01:31.897Z,12.77
2018-01-13T11:04:02.657Z,12.87
2018-01-13T11:06:33.510Z,13.60
2018-01-13T11:09:04.228Z,14.53
2018-01-13T11:11:35.300Z,14.30
2018-01-13T11:14:06.083Z,14.25
2018-01-13T11:16:36.851Z,14.97
2018-01-13T11:19:09.666Z,13.40
2018-01-13T11:21:51.805Z,13.95
2018-01-13T11:24:22.617Z,14.05
2018-01-13T11:26:53.484Z,12.70
2018-01-13T11:29:24.259Z,13.70
2018-01-13T11:31:55.036Z,13.20
2018-01-13T11:34:25.865Z,13.23
2018-01-13T11:36:56.696Z,12.97
2018-01-13T11:39:27.504Z,12.63
2018-01-13T11:41:58.297Z,13.50
2018-01-13T11:44:29.065Z,12.17
2018-01-13T11:46:59.860Z,13.80
2018-01-13T11:49:30.629Z,13.10
2018-01-13T11:52:01.423Z,12.53
2018-01-13T11:54:32.200Z,12.53
2018-01-13T11:57:02.969Z,13.60
2018-01-13T11:59:33.720Z,12.90
2018-01-13T12:02:04.498Z,11.70
2018-01-13T12:04:35.304Z,11.23
2018-01-13T12:07:06.049Z,12.30
2018-01-13T12:09:36.839Z,12.20
2018-01-13T12:12:07.609Z,11.90
2018-01-13T12:14:38.378Z,11.67
2018-01-13T12:17:09.168Z,10.67
2018-01-13T12:19:39.961Z,11.53
2018-01-13T12:22:10.716Z,12.33
2018-01-13T12:24:41.513Z,9.87
2018-01-13T12:27:12.289Z,9.93
2018-01-13T12:29:43.049Z,10.07
2018-01-13T12:32:13.821Z,9.63
2018-01-13T12:34:44.603Z,9.60
2018-01-13T12:37:15.364Z,8.87
2018-01-13T12:39:46.142Z,9.20
2018-01-13T12:42:16.916Z,8.40
2018-01-13T12:44:47.661Z,8.80
2018-01-13T12:47:18.436Z,8.10
2018-01-13T12:49:49.188Z,8.60
2018-01-13T12:52:19.943Z,8.53
2018-01-13T12:54:50.694Z,8.50
2018-01-13T12:57:21.510Z,9.13
2018-01-13T12:59:52.302Z,8.60
2018-01-13T13:02:23.084Z,8.80
2018-01-13T13:04:53.853Z,8.83
2018-01-13T13:07:24.808Z,9.90
2018-01-13T13:09:55.672Z,9.30
2018-01-13T13:12:26.532Z,8.63
2018-01-13T13:14:57.373Z,8.07
2018-01-13T13:17:28.204Z,8.63
2018-01-13T13:19:59.016Z,7.30
2018-01-13T13:22:29.888Z,8.40
2018-01-13T13:25:00.692Z,7.27
2018-01-13T13:27:31.535Z,7.53
2018-01-13T13:30:02.302Z,7.53
2018-01-13T13:32:33.080Z,8.73
2018-01-13T13:35:05.895Z,8.17
2018-01-13T13:37:36.736Z,8.60
2018-01-13T13:40:07.564Z,8.50
2018-01-13T13:42:39.426Z,7.10
2018-01-13T13:45:11.290Z,9.68
2018-01-13T13:47:42.298Z,8.10
2018-01-13T13:50:13.165Z,8.30
2018-01-13T13:52:43.923Z,8.67
2018-01-13T13:55:14.728Z,8.20
2018-01-13T13:57:45.508Z,8.60
2018-01-13T14:00:16.331Z,9.10
2018-01-13T14:02:47.149Z,7.60
2018-01-13T14:05:18.989Z,9.90
2018-01-13T14:07:49.748Z,9.23
2018-01-13T14:10:20.495Z,9.50
2018-01-13T14:12:51.256Z,9.53
2018-01-13T14:15:22.012Z,9.70
2018-01-13T14:17:52.747Z,9.47
2018-01-13T14:20:23.505Z,9.83
2018-01-13T14:23:04.988Z,10.20
2018-01-13T14:28:33.549Z,9.50
2018-01-13T14:33:41.808Z,9.57
2018-01-13T14:36:12.591Z,9.70
2018-01-13T14:38:43.364Z,9.10
2018-01-13T14:41:14.172Z,10.07
2018-01-13T14:43:44.975Z,9.00
2018-01-13T14:46:15.761Z,8.93
2018-01-13T14:48:46.545Z,9.57
2018-01-13T14:51:17.385Z,9.17
2018-01-13T14:53:48.172Z,8.00
2018-01-13T14:56:18.979Z,7.43
2018-01-13T14:58:50.797Z,7.60
2018-01-13T15:01:21.709Z,7.90
2018-01-13T15:03:52.492Z,8.27
2018-01-13T15:06:23.273Z,8.30
2018-01-13T15:08:54.076Z,8.40
2018-01-13T15:11:24.881Z,8.50
2018-01-13T15:13:55.696Z,9.67
2018-01-13T15:16:26.512Z,8.70
2018-01-13T15:18:57.278Z,8.40
2018-01-13T15:21:28.133Z,9.17
2018-01-13T15:24:01.009Z,8.73
2018-01-13T15:26:31.808Z,8.00
2018-01-13T15:29:02.709Z,8.40
2018-01-13T15:31:33.548Z,8.60
2018-01-13T15:34:04.358Z,7.77
2018-01-13T15:36:39.086Z,8.60
2018-01-13T15:39:09.851Z,7.75
2018-01-13T15:41:40.676Z,8.23
2018-01-13T15:44:11.486Z,9.77
2018-01-13T15:46:42.342Z,9.40
2018-01-13T15:49:13.123Z,8.00
2018-01-13T15:51:43.910Z,9.00
2018-01-13T15:54:15.324Z,8.90
2018-01-13T15:56:46.104Z,8.93
2018-01-13T15:59:16.862Z,9.03
2018-01-13T16:01:47.653Z,8.93
2018-01-13T16:04:18.421Z,10.10
2018-01-13T16:06:49.180Z,8.70
2018-01-13T16:09:19.928Z,9.40
2018-01-13T16:11:50.790Z,9.20
2018-01-13T16:14:21.631Z,9.20
2018-01-13T16:16:52.394Z,9.57
2018-01-13T16:19:23.176Z,9.87
2018-01-13T16:21:54.062Z,9.00
2018-01-13T16:24:24.800Z,9.07
2018-01-13T16:26:55.569Z,10.10
2018-01-13T16:29:26.419Z,8.63
2018-01-13T16:31:57.256Z,8.67
2018-01-13T16:34:28.031Z,9.40
2018-01-13T16:36:58.937Z,9.03
2018-01-13T16:39:29.735Z,9.73
2018-01-13T16:42:00.515Z,9.40
2018-01-13T16:44:31.337Z,10.63
2018-01-13T16:47:02.165Z,9.00
2018-01-13T16:49:33.032Z,10.20
2018-01-13T16:52:03.865Z,9.63
2018-01-13T16:54:34.720Z,10.70
2018-01-13T16:57:05.535Z,9.90
2018-01-13T16:59:36.359Z,10.03
2018-01-13T17:02:07.226Z,10.00
2018-01-13T17:04:38.030Z,10.73
2018-01-13T17:07:08.813Z,10.53
2018-01-13T17:09:39.628Z,12.57
2018-01-13T17:12:10.491Z,10.73
2018-01-13T17:14:41.273Z,11.27
2018-01-13T17:17:12.063Z,11.17
2018-01-13T17:19:42.829Z,11.80
2018-01-13T17:22:13.614Z,10.10
2018-01-13T17:24:44.369Z,9.80
2018-01-13T17:36:10.662Z,12.00
2018-01-13T17:38:41.436Z,10.48
2018-01-13T17:41:12.232Z,11.43
2018-01-13T17:43:43.030Z,10.73
2018-01-13T17:46:14.880Z,10.57
2018-01-13T17:48:45.789Z,10.48
2018-01-13T17:51:20.533Z,11.63
2018-01-13T17:53:51.337Z,11.43
2018-01-13T17:56:22.179Z,12.33
2018-01-13T18:07:47.418Z,10.25
2018-01-13T18:10:18.201Z,12.67
2018-01-13T18:12:48.952Z,10.83
2018-01-13T18:15:19.721Z,12.17
2018-01-13T18:17:50.532Z,11.70
2018-01-13T18:20:21.308Z,12.33
2018-01-13T18:22:52.064Z,12.17
2018-01-13T18:25:23.756Z,12.30
2018-01-13T18:27:54.627Z,13.43
2018-01-13T18:30:25.457Z,13.23
2018-01-13T18:32:56.207Z,13.47
2018-01-13T18:35:27.033Z,12.80
2018-01-13T18:37:58.038Z,12.23
2018-01-13T18:43:28.626Z,13.35
2018-01-13T18:45:59.421Z,14.27
2018-01-13T18:48:30.213Z,13.13
2018-01-13T18:51:01.036Z,13.13
2018-01-13T18:53:31.812Z,14.00
2018-01-13T18:59:22.572Z,14.15
2018-01-13T19:01:53.406Z,14.63
2018-01-13T19:04:24.315Z,15.63
2018-01-13T19:06:55.116Z,13.57
2018-01-13T19:09:26.113Z,15.57
2018-01-13T19:11:56.976Z,13.02
2018-01-13T19:14:27.741Z,15.40
2018-01-13T19:23:28.758Z,13.43
2018-01-13T19:25:59.890Z,16.62
2018-01-13T19:28:31.002Z,15.23
2018-01-13T19:31:02.180Z,13.70
2018-01-13T19:33:33.126Z,15.15
2018-01-13T19:36:05.830Z,13.93
2018-01-13T19:38:36.810Z,14.23
2018-01-13T19:41:07.833Z,15.10
2018-01-13T19:43:38.880Z,14.07
2018-01-13T19:46:10.293Z,13.62
2018-01-13T19:48:41.321Z,15.23
2018-01-13T19:51:12.412Z,13.82
2018-01-13T19:53:43.420Z,13.27
2018-01-13T19:56:14.890Z,14.87
2018-01-13T19:58:46.103Z,14.05
2018-01-13T20:01:16.975Z,13.15
2018-01-13T20:03:48.011Z,14.00
2018-01-13T20:06:18.979Z,12.65
2018-01-13T20:08:49.887Z,14.30
2018-01-13T20:11:20.834Z,14.30
2018-01-13T20:13:51.855Z,14.83
2018-01-13T20:16:22.828Z,14.15
2018-01-13T20:18:53.768Z,13.80
2018-01-13T20:21:24.673Z,13.00
2018-01-13T20:23:55.679Z,13.30
2018-01-13T20:26:28.719Z,11.30
2018-01-13T20:28:59.763Z,12.07
2018-01-13T20:31:30.694Z,11.00
2018-01-13T20:34:01.726Z,11.87
2018-01-13T20:36:32.692Z,12.52
2018-01-13T20:39:03.695Z,12.52
2018-01-13T20:41:34.639Z,10.43
2018-01-13T20:44:05.591Z,11.87
2018-01-13T20:46:36.538Z,13.10
2018-01-13T20:49:07.604Z,12.43
2018-01-13T20:51:38.573Z,12.90
2018-01-13T20:54:09.505Z,14.23
2018-01-13T20:56:40.408Z,13.80
2018-01-13T20:59:11.298Z,14.53
2018-01-13T21:01:42.200Z,13.23
2018-01-13T21:04:13.148Z,14.70
2018-01-13T21:06:44.014Z,13.93
2018-01-13T21:09:14.967Z,14.30
2018-01-13T21:11:45.991Z,15.57
2018-01-13T21:14:16.930Z,13.95
2018-01-13T21:16:47.876Z,14.60
2018-01-13T21:19:18.796Z,14.70
2018-01-13T21:21:49.836Z,14.23
2018-01-13T21:24:20.737Z,13.85
2018-01-13T21:26:51.702Z,13.90
2018-01-13T21:29:22.609Z,14.57
2018-01-13T21:31:53.480Z,14.20
2018-01-13T21:34:24.381Z,13.13
2018-01-13T21:36:55.255Z,12.87
2018-01-13T21:39:26.115Z,12.67
2018-01-13T21:41:59.018Z,15.63
2018-01-13T21:44:30.932Z,14.57
2018-01-13T21:47:01.849Z,13.43
2018-01-13T21:49:34.347Z,13.63
2018-01-13T21:52:05.447Z,14.18
2018-01-13T21:54:36.433Z,14.90
2018-01-13T21:57:08.155Z,13.70
2018-01-13T21:59:39.096Z,12.60
2018-01-13T22:02:10.086Z,13.77
2018-01-13T22:04:41.000Z,13.77
2018-01-13T22:07:11.841Z,14.37
2018-01-13T22:09:42.896Z,13.80
2018-01-13T22:12:13.847Z,13.27
2018-01-13T22:14:44.780Z,13.20
2018-01-13T22:17:16.714Z,13.27
2018-01-13T22:19:47.616Z,13.10
2018-01-13T22:22:18.523Z,13.13
2018-01-13T22:24:49.427Z,13.87
2018-01-13T22:27:20.337Z,14.20
2018-01-13T22:29:51.384Z,13.53
2018-01-13T22:32:22.349Z,14.23
2018-01-13T22:34:53.281Z,13.73
2018-01-13T22:37:24.168Z,14.23
2018-01-13T22:39:55.038Z,15.40
2018-01-13T22:42:25.971Z,15.93
2018-01-13T22:44:56.921Z,14.97
2018-01-13T22:47:27.812Z,15.13
2018-01-13T22:49:58.672Z,14.77
2018-01-13T22:52:29.535Z,13.23
2018-01-13T22:55:01.544Z,13.67
2018-01-13T22:57:32.417Z,13.88
2018-01-13T23:00:03.544Z,15.67
2018-01-13T23:02:34.565Z,14.77
2018-01-13T23:05:05.506Z,13.40
2018-01-13T23:07:36.396Z,14.90
2018-01-13T23:10:07.362Z,15.10
2018-01-13T23:12:38.308Z,14.77
2018-01-13T23:15:09.231Z,15.63
2018-01-13T23:17:40.073Z,14.43
2018-01-13T23:20:11.096Z,15.10
2018-01-13T23:22:42.176Z,15.15
2018-01-13T23:25:13.404Z,13.95
2018-01-13T23:27:44.338Z,15.02
2018-01-13T23:30:15.633Z,15.60
2018-01-13T23:32:46.696Z,13.62
2018-01-13T23:35:17.647Z,13.52
2018-01-13T23:37:48.490Z,14.83
2018-01-13T23:40:19.332Z,14.27
2018-01-13T23:42:50.332Z,15.30
2018-01-13T23:45:21.185Z,13.62
2018-01-13T23:47:52.141Z,13.30
2018-01-13T23:50:23.241Z,13.90
2018-01-13T23:52:54.333Z,13.65
2018-01-13T23:55:25.226Z,12.85
2018-01-13T23:57:56.148Z,14.40
